createdAt,value
2023-02-01T00:02:43.598Z,8.00
2023-02-01T00:05:57.466Z,9.00
2023-02-01T00:09:00.600Z,10.00
2023-02-01T00:12:04.668Z,8.80
2023-02-01T00:15:08.795Z,9.00
2023-02-01T00:18:11.799Z,9.20
2023-02-01T00:21:18.575Z,7.25
2023-02-01T00:24:21.564Z,8.00
2023-02-01T00:27:24.625Z,8.20
2023-02-01T00:30:27.679Z,9.00
2023-02-01T00:33:31.955Z,7.00
2023-02-01T00:36:36.634Z,8.00
2023-02-01T00:39:39.888Z,5.40
2023-02-01T00:42:43.160Z,7.00
2023-02-01T00:45:47.524Z,10.00
2023-02-01T00:48:51.647Z,7.60
2023-02-01T00:51:56.856Z,5.80
2023-02-01T00:55:00.322Z,6.60
2023-02-01T00:58:03.545Z,5.00
2023-02-01T01:01:09.045Z,8.40
2023-02-01T01:04:12.625Z,8.25
2023-02-01T01:07:17.396Z,9.40
2023-02-01T01:10:20.939Z,8.80
2023-02-01T01:13:24.626Z,9.00
2023-02-01T01:16:30.583Z,10.00
2023-02-01T01:19:33.889Z,9.25
2023-02-01T01:22:38.685Z,7.00
2023-02-01T01:25:42.742Z,7.00
2023-02-01T01:28:46.125Z,8.00
2023-02-01T01:31:49.512Z,8.00
2023-02-01T01:34:52.954Z,6.60
2023-02-01T01:37:57.645Z,8.00
2023-02-01T01:41:01.036Z,7.60
2023-02-01T01:44:06.574Z,8.00
2023-02-01T01:47:11.251Z,9.40
2023-02-01T01:50:21.048Z,7.20
2023-02-01T01:53:30.486Z,8.00
2023-02-01T01:56:36.855Z,6.50
2023-02-01T01:59:42.435Z,7.80
2023-02-01T02:02:49.691Z,5.00
2023-02-01T02:05:56.977Z,8.00
2023-02-01T02:09:01.791Z,9.00
2023-02-01T02:12:05.731Z,6.80
2023-02-01T02:15:11.683Z,8.40
2023-02-01T02:18:22.662Z,5.00
2023-02-01T02:21:44.288Z,7.75
2023-02-01T02:25:45.273Z,6.40
2023-02-01T02:29:13.911Z,8.40
2023-02-01T02:32:54.386Z,6.00
2023-02-01T02:36:03.966Z,5.00
2023-02-01T02:39:16.548Z,7.25
2023-02-01T02:42:46.666Z,5.00
2023-02-01T02:46:11.955Z,6.00
2023-02-01T02:49:23.954Z,4.00
2023-02-01T02:52:48.093Z,3.00
2023-02-01T02:56:04.102Z,5.80
2023-02-01T02:59:28.362Z,5.00
2023-02-01T03:02:50.661Z,4.33
2023-02-01T03:05:54.301Z,5.00
2023-02-01T03:09:03.409Z,5.25
2023-02-01T03:12:30.394Z,5.00
2023-02-01T03:15:39.965Z,3.00
2023-02-01T03:18:50.866Z,7.00
2023-02-01T03:21:57.807Z,3.60
2023-02-01T03:25:12.602Z,4.00
2023-02-01T03:28:22.159Z,4.50
2023-02-01T03:31:26.445Z,2.60
2023-02-01T03:34:30.027Z,4.00
2023-02-01T03:37:33.980Z,3.00
2023-02-01T03:40:39.732Z,3.60
2023-02-01T03:43:53.723Z,4.00
2023-02-01T03:47:01.794Z,6.40
2023-02-01T03:50:08.787Z,4.00
2023-02-01T03:53:17.151Z,4.00
2023-02-01T03:56:27.050Z,4.40
2023-02-01T03:59:31.285Z,2.60
2023-02-01T04:02:34.994Z,4.60
2023-02-01T04:05:38.330Z,5.00
2023-02-01T04:08:44.307Z,4.00
2023-02-01T04:11:49.001Z,5.00
2023-02-01T04:14:52.217Z,5.00
2023-02-01T04:17:55.442Z,4.00
2023-02-01T04:20:58.814Z,6.75
2023-02-01T04:24:02.546Z,8.00
2023-02-01T04:27:07.339Z,8.00
2023-02-01T04:30:12.473Z,7.50
2023-02-01T04:33:16.300Z,10.40
2023-02-01T04:36:20.727Z,7.75
2023-02-01T04:39:24.089Z,7.40
2023-02-01T04:42:29.450Z,8.00
2023-02-01T04:45:32.809Z,6.00
2023-02-01T04:48:36.648Z,5.75
2023-02-01T04:51:39.910Z,7.00
2023-02-01T04:54:43.190Z,8.60
2023-02-01T04:57:47.890Z,6.00
2023-02-01T05:00:52.484Z,9.00
2023-02-01T05:03:55.731Z,6.00
2023-02-01T05:06:59.030Z,6.00
2023-02-01T05:10:02.543Z,7.00
2023-02-01T05:13:24.664Z,4.75
2023-02-01T05:16:28.178Z,7.00
2023-02-01T05:19:31.464Z,7.00
2023-02-01T05:22:34.897Z,4.40
2023-02-01T05:25:38.204Z,5.00
2023-02-01T05:28:42.812Z,7.00
2023-02-01T05:31:47.572Z,6.00
2023-02-01T05:34:51.070Z,5.00
2023-02-01T05:37:54.382Z,5.40
2023-02-01T05:40:57.823Z,6.00
2023-02-01T05:44:02.477Z,4.40
2023-02-01T05:47:06.236Z,5.00
2023-02-01T05:50:10.236Z,3.00
2023-02-01T05:53:13.979Z,5.00
2023-02-01T05:56:17.254Z,5.00
2023-02-01T05:59:22.278Z,5.00
2023-02-01T06:02:26.320Z,4.80
2023-02-01T06:05:29.551Z,7.40
2023-02-01T06:08:32.810Z,5.00
2023-02-01T06:11:36.471Z,5.00
2023-02-01T06:14:41.156Z,5.75
2023-02-01T06:17:45.778Z,3.20
2023-02-01T06:20:54.923Z,7.00
2023-02-01T06:23:58.824Z,8.00
2023-02-01T06:27:02.125Z,7.00
2023-02-01T06:30:08.454Z,4.00
2023-02-01T06:33:11.760Z,7.00
2023-02-01T06:36:16.993Z,4.60
2023-02-01T06:39:20.447Z,4.00
2023-02-01T06:42:24.066Z,4.80
2023-02-01T06:45:29.018Z,4.00
2023-02-01T06:48:33.314Z,4.20
2023-02-01T06:51:37.453Z,3.00
2023-02-01T06:54:40.817Z,4.60
2023-02-01T06:57:44.122Z,5.00
2023-02-01T07:00:48.793Z,3.00
2023-02-01T07:03:53.060Z,5.50
2023-02-01T07:06:56.351Z,4.25
2023-02-01T07:09:59.602Z,8.50
2023-02-01T07:13:03.257Z,3.50
2023-02-01T07:16:10.726Z,4.40
2023-02-01T07:19:14.179Z,5.00
2023-02-01T07:22:18.544Z,4.00
2023-02-01T07:25:21.971Z,4.60
2023-02-01T07:28:25.323Z,5.00
2023-02-01T07:31:30.137Z,3.00
2023-02-01T07:34:34.016Z,4.20
2023-02-01T07:37:37.339Z,7.00
2023-02-01T07:40:40.574Z,5.60
2023-02-01T07:43:44.352Z,8.80
2023-02-01T07:46:48.970Z,5.80
2023-02-01T07:49:52.735Z,6.00
2023-02-01T07:52:55.958Z,7.00
2023-02-01T07:55:59.274Z,7.00
2023-02-01T07:59:02.717Z,7.00
2023-02-01T08:02:07.854Z,7.00
2023-02-01T08:05:11.129Z,7.00
2023-02-01T08:08:14.575Z,6.00
2023-02-01T08:11:18.270Z,6.00
2023-02-01T08:14:21.801Z,6.60
2023-02-01T08:17:27.310Z,7.40
2023-02-01T08:20:30.616Z,7.40
2023-02-01T08:23:34.484Z,5.60
2023-02-01T08:26:38.035Z,6.60
2023-02-01T08:29:41.416Z,7.60
2023-02-01T08:32:46.105Z,10.40
2023-02-01T08:35:49.663Z,6.50
2023-02-01T08:38:53.193Z,9.00
2023-02-01T08:42:10.335Z,6.00
2023-02-01T08:45:13.933Z,8.00
2023-02-01T08:48:18.586Z,7.00
2023-02-01T08:51:23.644Z,8.60
2023-02-01T08:54:26.875Z,6.60
2023-02-01T08:57:30.291Z,6.00
2023-02-01T09:00:33.651Z,7.00
2023-02-01T09:03:38.744Z,9.00
2023-02-01T09:06:42.956Z,8.00
2023-02-01T09:09:47.823Z,7.20
2023-02-01T09:12:51.143Z,7.40
2023-02-01T09:15:54.568Z,8.00
2023-02-01T09:19:23.984Z,8.00
2023-02-01T09:22:22.997Z,8.00
2023-02-01T09:25:26.311Z,7.00
2023-02-01T09:28:29.794Z,8.00
2023-02-01T09:31:33.148Z,7.00
2023-02-01T09:34:37.960Z,5.00
2023-02-01T09:37:41.164Z,9.00
2023-02-01T09:40:49.034Z,5.40
2023-02-01T09:44:02.021Z,10.00
2023-02-01T09:47:05.969Z,10.00
2023-02-01T09:50:18.009Z,7.00
2023-02-01T09:53:27.515Z,9.00
2023-02-01T09:56:38.382Z,8.60
2023-02-01T09:59:46.191Z,7.00
2023-02-01T10:02:49.465Z,6.00
2023-02-01T10:06:29.460Z,6.00
2023-02-01T10:09:46.533Z,4.50
2023-02-01T10:13:18.873Z,6.25
2023-02-01T10:16:38.311Z,5.20
2023-02-01T10:19:53.554Z,6.00
2023-02-01T10:23:27.295Z,5.00
2023-02-01T10:26:38.975Z,6.20
2023-02-01T10:29:44.656Z,8.00
2023-02-01T10:32:51.042Z,8.00
2023-02-01T10:35:58.691Z,7.00
2023-02-01T10:39:05.908Z,8.00
2023-02-01T10:42:11.668Z,9.00
2023-02-01T10:45:19.531Z,9.00
2023-02-01T10:48:22.979Z,9.40
2023-02-01T10:51:30.440Z,10.40
2023-02-01T10:54:40.199Z,10.40
2023-02-01T10:57:43.651Z,10.00
2023-02-01T11:00:50.317Z,11.00
2023-02-01T11:03:56.454Z,10.00
2023-02-01T11:07:09.527Z,9.60
2023-02-01T11:10:39.579Z,13.00
2023-02-01T11:13:43.597Z,8.75
2023-02-01T11:16:50.835Z,11.00
2023-02-01T11:20:00.040Z,8.50
2023-02-01T11:23:04.148Z,7.00
2023-02-01T11:26:14.231Z,8.50
2023-02-01T11:29:23.304Z,11.60
2023-02-01T11:32:27.185Z,5.80
2023-02-01T11:35:32.141Z,12.60
2023-02-01T11:38:36.726Z,8.80
2023-02-01T11:41:46.375Z,6.00
2023-02-01T11:44:50.269Z,8.80
2023-02-01T11:47:55.427Z,9.00
2023-02-01T11:51:16.566Z,12.20
2023-02-01T11:54:49.521Z,8.60
2023-02-01T11:58:08.862Z,8.20
2023-02-01T12:01:30.101Z,8.00
2023-02-01T12:05:10.141Z,6.00
2023-02-01T12:08:34.213Z,6.75
2023-02-01T12:11:48.612Z,10.00
2023-02-01T12:15:07.137Z,7.75
2023-02-01T12:18:36.182Z,7.00
2023-02-01T12:21:53.014Z,6.60
2023-02-01T12:25:37.636Z,6.60
2023-02-01T12:29:06.450Z,7.00
2023-02-01T12:32:19.529Z,10.00
2023-02-01T12:35:46.177Z,9.00
2023-02-01T12:38:56.249Z,7.60
2023-02-01T12:42:04.690Z,10.40
2023-02-01T12:45:15.925Z,8.00
2023-02-01T12:48:32.240Z,10.40
2023-02-01T12:51:39.392Z,9.40
2023-02-01T12:54:47.639Z,7.00
2023-02-01T12:57:55.546Z,8.00
2023-02-01T13:01:04.519Z,6.40
2023-02-01T13:04:17.355Z,7.00
2023-02-01T13:07:24.662Z,8.20
2023-02-01T13:10:44.946Z,9.00
2023-02-01T13:13:58.418Z,11.00
2023-02-01T13:17:06.266Z,6.50
2023-02-01T13:20:21.971Z,10.80
2023-02-01T13:23:30.639Z,11.00
2023-02-01T13:26:34.248Z,7.60
2023-02-01T13:29:40.166Z,10.00
2023-02-01T13:33:53.600Z,9.25
2023-02-01T13:36:51.106Z,9.60
2023-02-01T13:40:10.167Z,8.00
2023-02-01T13:43:18.041Z,9.00
2023-02-01T13:46:22.159Z,9.00
2023-02-01T13:49:29.602Z,10.00
2023-02-01T13:52:40.476Z,10.00
2023-02-01T13:55:46.892Z,9.00
2023-02-01T13:58:52.461Z,8.00
2023-02-01T14:01:55.757Z,9.00
2023-02-01T14:04:58.991Z,11.80
2023-02-01T14:08:14.845Z,8.00
2023-02-01T14:11:45.014Z,12.40
2023-02-01T14:14:51.076Z,10.00
2023-02-01T14:17:54.827Z,9.00
2023-02-01T14:21:24.227Z,7.00
2023-02-01T14:24:31.385Z,9.00
2023-02-01T14:27:38.167Z,10.00
2023-02-01T14:30:45.177Z,10.00
2023-02-01T14:33:48.825Z,7.00
2023-02-01T14:36:58.873Z,6.25
2023-02-01T14:40:05.715Z,7.00
2023-02-01T14:43:33.001Z,8.00
2023-02-01T14:47:07.003Z,6.80
2023-02-01T14:50:41.747Z,6.00
2023-02-01T14:53:47.797Z,9.00
2023-02-01T14:56:53.502Z,8.00
2023-02-01T15:00:10.601Z,9.80
2023-02-01T15:03:36.438Z,10.00
2023-02-01T15:06:41.716Z,6.75
2023-02-01T15:09:48.641Z,8.00
2023-02-01T15:12:53.270Z,8.00
2023-02-01T15:16:11.796Z,7.60
2023-02-01T15:19:16.818Z,8.00
2023-02-01T15:22:21.347Z,8.60
2023-02-01T15:25:27.587Z,5.60
2023-02-01T15:28:32.316Z,9.00
2023-02-01T15:31:38.932Z,7.00
2023-02-01T15:34:50.792Z,8.00
2023-02-01T15:37:54.353Z,8.40
2023-02-01T15:40:59.227Z,7.00
2023-02-01T15:44:22.828Z,7.00
2023-02-01T15:47:30.528Z,8.20
2023-02-01T15:50:34.382Z,9.00
2023-02-01T15:53:37.871Z,9.60
2023-02-01T15:56:43.499Z,9.00
2023-02-01T15:59:48.551Z,9.60
2023-02-01T16:02:57.045Z,8.00
2023-02-01T16:06:02.055Z,10.00
2023-02-01T16:09:13.574Z,9.00
2023-02-01T16:12:32.060Z,10.40
2023-02-01T16:15:36.804Z,10.00
2023-02-01T16:18:40.143Z,6.00
2023-02-01T16:21:43.407Z,10.00
2023-02-01T16:24:47.298Z,12.00
2023-02-01T16:27:50.654Z,12.00
2023-02-01T16:30:55.514Z,11.00
2023-02-01T16:33:59.575Z,12.50
2023-02-01T16:37:03.947Z,11.20
2023-02-01T16:40:08.107Z,12.00
2023-02-01T16:43:15.839Z,12.33
2023-02-01T16:46:23.876Z,13.75
2023-02-01T16:49:27.861Z,13.00
2023-02-01T16:52:31.202Z,11.00
2023-02-01T16:55:34.655Z,11.20
2023-02-01T16:58:39.602Z,11.00
2023-02-01T17:01:44.268Z,10.40
2023-02-01T17:04:49.667Z,10.00
2023-02-01T17:07:53.981Z,10.75
2023-02-01T17:10:57.403Z,9.60
2023-02-01T17:14:10.461Z,10.00
2023-02-01T17:17:17.001Z,10.25
2023-02-01T17:20:25.032Z,13.60
2023-02-01T17:23:29.520Z,10.60
2023-02-01T17:26:34.041Z,12.00
2023-02-01T17:29:37.726Z,12.00
2023-02-01T17:32:43.405Z,16.00
2023-02-01T17:35:48.393Z,14.00
2023-02-01T17:39:04.780Z,14.00
2023-02-01T17:42:13.229Z,15.40
2023-02-01T17:45:25.689Z,15.00
2023-02-01T17:48:30.653Z,12.75
2023-02-01T17:51:34.161Z,13.00
2023-02-01T17:54:38.485Z,12.00
2023-02-01T17:57:42.692Z,12.00
2023-02-01T18:00:47.815Z,11.50
2023-02-01T18:03:52.909Z,12.00
2023-02-01T18:06:57.617Z,11.33
2023-02-01T18:10:02.100Z,12.00
2023-02-01T18:13:06.476Z,14.80
2023-02-01T18:16:18.979Z,12.00
2023-02-01T18:19:23.705Z,9.50
2023-02-01T18:22:27.479Z,14.00
2023-02-01T18:25:37.106Z,13.00
2023-02-01T18:28:41.099Z,15.40
2023-02-01T18:31:49.802Z,12.20
2023-02-01T18:34:54.633Z,12.00
2023-02-01T18:37:59.021Z,12.00
2023-02-01T18:41:06.272Z,10.40
2023-02-01T18:44:16.334Z,14.50
2023-02-01T18:47:19.622Z,15.00
2023-02-01T18:50:25.089Z,12.00
2023-02-01T18:53:28.562Z,13.00
2023-02-01T18:56:31.928Z,11.80
2023-02-01T18:59:35.560Z,10.60
2023-02-01T19:02:40.256Z,12.40
2023-02-01T19:05:45.100Z,14.00
2023-02-01T19:08:49.070Z,13.00
2023-02-01T19:11:52.322Z,14.00
2023-02-01T19:14:55.581Z,13.00
2023-02-01T19:17:59.385Z,13.20
2023-02-01T19:21:06.185Z,13.40
2023-02-01T19:24:09.536Z,11.00
2023-02-01T19:27:13.134Z,13.75
2023-02-01T19:30:17.070Z,11.00
2023-02-01T19:33:20.406Z,14.80
2023-02-01T19:36:26.918Z,16.80
2023-02-01T19:39:30.675Z,15.60
2023-02-01T19:42:34.001Z,13.00
2023-02-01T19:45:37.454Z,18.40
2023-02-01T19:48:40.692Z,16.40
2023-02-01T19:51:45.508Z,15.60
2023-02-01T19:54:48.835Z,16.00
2023-02-01T19:57:52.251Z,16.60
2023-02-01T20:00:55.328Z,17.60
2023-02-01T20:04:01.909Z,15.00
2023-02-01T20:07:06.519Z,15.00
2023-02-01T20:10:11.108Z,17.40
2023-02-01T20:13:15.058Z,15.60
2023-02-01T20:16:18.373Z,17.00
2023-02-01T20:19:21.781Z,14.00
2023-02-01T20:22:26.532Z,13.00
2023-02-01T20:25:30.063Z,13.20
2023-02-01T20:28:35.649Z,9.25
2023-02-01T20:31:39.119Z,12.00
2023-02-01T20:34:42.523Z,13.00
2023-02-01T20:37:49.116Z,14.00
2023-02-01T20:40:52.713Z,12.00
2023-02-01T20:43:56.755Z,12.40
2023-02-01T20:47:00.127Z,12.40
2023-02-01T20:50:03.498Z,12.40
2023-02-01T20:53:11.098Z,14.00
2023-02-01T20:56:17.412Z,14.00
2023-02-01T20:59:22.341Z,14.00
2023-02-01T21:02:26.883Z,11.25
2023-02-01T21:05:40.130Z,11.75
2023-02-01T21:08:45.150Z,12.25
2023-02-01T21:11:48.742Z,13.75
2023-02-01T21:14:52.052Z,12.00
2023-02-01T21:17:55.511Z,13.50
2023-02-01T21:21:04.589Z,12.00
2023-02-01T21:24:09.640Z,12.00
2023-02-01T21:27:13.612Z,9.00
2023-02-01T21:30:16.969Z,9.40
2023-02-01T21:33:20.306Z,10.75
2023-02-01T21:36:23.592Z,11.00
2023-02-01T21:39:29.072Z,10.00
2023-02-01T21:42:32.534Z,10.00
2023-02-01T21:45:38.155Z,9.00
2023-02-01T21:49:03.039Z,8.00
2023-02-01T21:52:05.170Z,11.00
2023-02-01T21:55:11.475Z,6.00
2023-02-01T21:58:14.907Z,7.00
2023-02-01T22:01:18.212Z,7.20
2023-02-01T22:04:21.514Z,7.00
2023-02-01T22:07:25.183Z,7.00
2023-02-01T22:10:29.812Z,5.50
2023-02-01T22:13:33.776Z,5.00
2023-02-01T22:16:37.089Z,4.33
2023-02-01T22:19:40.859Z,5.60
2023-02-01T22:22:44.173Z,6.00
2023-02-01T22:25:48.883Z,6.00
2023-02-01T22:28:52.168Z,5.00
2023-02-01T22:31:55.472Z,5.50
2023-02-01T22:34:58.798Z,6.40
2023-02-01T22:38:02.044Z,7.60
2023-02-01T22:41:08.433Z,6.00
2023-02-01T22:44:11.898Z,6.40
2023-02-01T22:47:15.462Z,6.00
2023-02-01T22:50:19.366Z,5.60
2023-02-01T22:53:22.699Z,6.00
2023-02-01T22:56:30.298Z,7.60
2023-02-01T22:59:33.688Z,4.00
2023-02-01T23:02:38.206Z,6.80
2023-02-01T23:05:41.673Z,7.00
2023-02-01T23:08:45.003Z,6.00
2023-02-01T23:11:50.280Z,7.20
2023-02-01T23:15:08.910Z,8.25
2023-02-01T23:18:12.298Z,8.40
2023-02-01T23:21:17.261Z,8.00
2023-02-01T23:24:20.841Z,10.00
2023-02-01T23:27:27.235Z,7.00
2023-02-01T23:30:30.547Z,8.50
2023-02-01T23:33:33.876Z,8.00
2023-02-01T23:36:37.219Z,6.00
2023-02-01T23:39:40.464Z,8.00
2023-02-01T23:43:05.129Z,8.00
2023-02-01T23:46:08.935Z,8.50
2023-02-01T23:49:12.549Z,8.00
2023-02-01T23:52:15.776Z,6.00
2023-02-01T23:55:19.052Z,7.00
2023-02-01T23:58:24.021Z,6.80
